Time;durP1;ratioP1;P1;durP2;ratioP2;P2;SDS_P1;SDS_P2;PMS_P1;PMS_P2;Temp;Humidity;BMP_temperature;BMP_pressure;BME280_temperature;BME280_humidity;BME280_pressure;Samples;Min_cycle;Max_cycle;Signal;HPM_P1;HPM_P2
2023/03/07 00:01:00;;;;;;;51.20;17.70;;;;;;;1.17;80.43;97247.17;104575;1266;113574;-74
2023/03/07 00:03:27;;;;;;;31.30;13.90;;;;;;;1.19;80.29;97247.19;104701;1266;100430;-69
2023/03/07 00:06:01;;;;;;;31.50;13.80;;;;;;;1.22;80.42;97250.46;104778;1271;99266;-71
2023/03/07 00:08:28;;;;;;;26.90;12.50;;;;;;;1.22;80.10;97249.34;104613;1266;99384;-68
2023/03/07 00:10:59;;;;;;;29.80;12.80;;;;;;;1.24;80.10;97247.42;104930;1268;99357;-68
2023/03/07 00:13:32;;;;;;;32.40;14.00;;;;;;;1.22;80.21;97248.63;104256;1277;112433;-68
2023/03/07 00:16:04;;;;;;;34.00;14.90;;;;;;;1.19;80.17;97246.02;104314;1278;99318;-68
2023/03/07 00:18:32;;;;;;;25.90;12.80;;;;;;;1.14;80.19;97243.26;104133;1281;107354;-67
2023/03/07 00:21:01;;;;;;;27.80;12.70;;;;;;;1.09;80.15;97237.64;104386;1272;99424;-66
2023/03/07 00:23:29;;;;;;;58.90;19.60;;;;;;;1.04;80.24;97237.83;104329;1267;99829;-69
2023/03/07 00:26:01;;;;;;;39.80;15.90;;;;;;;0.98;80.24;97235.12;104228;1268;100577;-69
2023/03/07 00:28:29;;;;;;;27.20;12.30;;;;;;;0.93;80.72;97236.52;104279;1277;99356;-73
2023/03/07 00:31:08;;;;;;;29.80;12.90;;;;;;;0.89;80.45;97234.35;104299;1270;108181;-75
2023/03/07 00:33:36;;;;;;;26.90;12.60;;;;;;;0.84;80.64;97230.78;104661;1260;99259;-71
2023/03/07 00:36:11;;;;;;;33.10;13.30;;;;;;;0.80;80.60;97228.66;104974;1263;99772;-69
2023/03/07 00:38:38;;;;;;;36.10;14.60;;;;;;;0.77;80.71;97228.98;104856;1271;113450;-68
2023/03/07 00:41:08;;;;;;;37.40;13.90;;;;;;;0.78;80.64;97229.30;104792;1268;99708;-70
2023/03/07 00:43:36;;;;;;;39.30;16.70;;;;;;;0.79;80.65;97227.27;104675;1263;108562;-71
2023/03/07 00:46:04;;;;;;;47.70;16.80;;;;;;;0.82;80.56;97227.85;104691;1264;99326;-68
2023/03/07 00:48:34;;;;;;;38.60;15.50;;;;;;;0.84;80.46;97224.36;104958;1271;100556;-72
2023/03/07 00:51:01;;;;;;;24.30;11.20;;;;;;;0.87;80.55;97220.57;104906;1272;113520;-69
2023/03/07 00:53:28;;;;;;;28.80;11.80;;;;;;;0.89;80.40;97217.24;104778;1258;100451;-72
2023/03/07 00:56:01;;;;;;;26.20;12.10;;;;;;;0.91;80.48;97218.36;104860;1263;100446;-73
2023/03/07 00:58:31;;;;;;;39.30;13.70;;;;;;;0.91;80.53;97217.88;104733;1263;100505;-70
2023/03/07 01:00:59;;;;;;;29.80;11.90;;;;;;;0.91;80.57;97212.53;104800;1265;99864;-72
2023/03/07 01:03:27;;;;;;;19.40;9.00;;;;;;;0.91;80.28;97210.87;104910;1272;113565;-68
2023/03/07 01:05:55;;;;;;;40.90;14.80;;;;;;;0.89;80.49;97209.38;104553;1264;557489;-73
2023/03/07 01:08:23;;;;;;;33.30;13.30;;;;;;;0.87;80.46;97208.55;104971;1270;108392;-69
2023/03/07 01:10:50;;;;;;;35.20;14.50;;;;;;;0.84;80.58;97207.75;104921;1264;99243;-73
2023/03/07 01:13:18;;;;;;;25.20;11.60;;;;;;;0.82;80.56;97209.08;104891;1267;99289;-69
2023/03/07 01:15:45;;;;;;;23.00;9.80;;;;;;;0.77;80.59;97203.84;105000;1262;113572;-71
2023/03/07 01:18:12;;;;;;;34.80;14.20;;;;;;;0.74;80.60;97205.48;104866;1268;100536;-69
2023/03/07 01:20:39;;;;;;;33.40;12.80;;;;;;;0.72;80.65;97202.48;104817;1270;100625;-70
2023/03/07 01:23:07;;;;;;;27.10;12.40;;;;;;;0.71;80.51;97200.11;104863;1261;99699;-68
2023/03/07 01:25:39;;;;;;;36.30;14.90;;;;;;;0.72;80.47;97198.59;104975;1260;99689;-71
2023/03/07 01:28:09;;;;;;;34.50;14.40;;;;;;;0.74;80.40;97200.46;104820;1270;113489;-69
2023/03/07 01:30:36;;;;;;;36.20;15.60;;;;;;;0.75;80.19;97200.46;104847;1268;99239;-68
2023/03/07 01:33:03;;;;;;;41.70;15.70;;;;;;;0.77;80.43;97200.59;104904;1270;100535;-75
2023/03/07 01:35:39;;;;;;;23.10;10.20;;;;;;;0.80;80.27;97203.06;104828;1260;100540;-70
2023/03/07 01:38:06;;;;;;;24.40;11.20;;;;;;;0.80;80.21;97195.33;104829;1264;99509;-67
2023/03/07 01:40:33;;;;;;;27.70;11.80;;;;;;;0.81;80.18;97191.70;104777;1263;99265;-69
2023/03/07 01:43:25;;;;;;;37.40;13.90;;;;;;;0.82;80.27;97189.65;104788;1270;99388;-69
2023/03/07 01:46:17;;;;;;;31.90;13.10;;;;;;;0.82;80.44;97189.70;104911;1270;107643;-68
2023/03/07 01:48:51;;;;;;;42.80;14.70;;;;;;;0.81;80.56;97187.50;104611;1271;99242;-67
2023/03/07 01:51:19;;;;;;;36.10;13.30;;;;;;;0.81;80.45;97187.02;104792;1270;99176;-71
2023/03/07 01:53:49;;;;;;;34.60;13.50;;;;;;;0.80;80.56;97185.23;104820;1270;113762;-69
2023/03/07 01:56:18;;;;;;;40.50;14.90;;;;;;;0.81;80.50;97184.48;104927;1270;99885;-68
2023/03/07 01:58:45;;;;;;;30.90;13.50;;;;;;;0.79;80.76;97182.98;104736;1270;108238;-70
2023/03/07 02:01:15;;;;;;;53.50;18.50;;;;;;;0.80;80.56;97180.51;104874;1258;99358;-71
2023/03/07 02:04:03;;;;;;;38.10;15.30;;;;;;;0.82;80.44;97180.57;104814;1257;99693;-70
2023/03/07 02:06:34;;;;;;;45.40;16.60;;;;;;;0.86;80.31;97173.79;104688;1261;113765;-72
2023/03/07 02:09:02;;;;;;;48.40;17.20;;;;;;;0.89;80.42;97176.79;104616;1267;99716;-70
2023/03/07 02:11:29;;;;;;;33.80;13.40;;;;;;;0.93;80.21;97172.87;104904;1260;108713;-70
2023/03/07 02:13:56;;;;;;;57.70;20.40;;;;;;;0.96;80.08;97172.62;104399;1272;99341;-73
2023/03/07 02:16:24;;;;;;;40.20;15.80;;;;;;;1.01;80.06;97171.59;104988;1270;100453;-72
2023/03/07 02:18:51;;;;;;;37.20;15.20;;;;;;;1.02;79.89;97167.95;104646;1264;113478;-71
2023/03/07 02:21:34;;;;;;;40.80;14.90;;;;;;;1.03;79.87;97169.25;104831;1266;99322;-68
2023/03/07 02:24:29;;;;;;;26.50;10.90;;;;;;;1.03;79.58;97167.14;104983;1258;108573;-68
2023/03/07 02:26:57;;;;;;;31.60;12.20;;;;;;;1.01;79.53;97166.90;104882;1257;100410;-69
2023/03/07 02:29:24;;;;;;;42.10;16.20;;;;;;;0.99;79.65;97163.47;105081;1257;99484;-68
2023/03/07 02:31:51;;;;;;;39.40;15.00;;;;;;;0.97;79.63;97163.49;104913;1261;99249;-67
2023/03/07 02:34:29;;;;;;;27.80;12.20;;;;;;;0.94;79.51;97162.88;104887;1261;100629;-70
2023/03/07 02:37:09;;;;;;;37.10;14.50;;;;;;;0.92;79.73;97162.41;104916;1261;108476;-69
2023/03/07 02:39:46;;;;;;;;;;;;;;;0.91;79.50;97164.48;105035;1257;99255;-71
2023/03/07 02:42:19;;;;;;;25.10;9.60;;;;;;;0.88;79.73;97163.22;104550;1273;101192;-69
2023/03/07 02:44:54;;;;;;;40.20;15.20;;;;;;;0.86;79.70;97159.66;104553;1276;113509;-69
2023/03/07 02:47:21;;;;;;;25.10;11.60;;;;;;;0.85;79.58;97158.11;104601;1267;99338;-69
2023/03/07 02:49:48;;;;;;;41.50;14.50;;;;;;;0.87;79.61;97156.46;104486;1267;99452;-69
2023/03/07 02:52:15;;;;;;;43.70;14.90;;;;;;;0.89;79.75;97156.45;104493;1266;99373;-68
2023/03/07 02:54:42;;;;;;;53.70;18.50;;;;;;;0.92;79.50;97151.56;104486;1267;99455;-71
2023/03/07 02:57:10;;;;;;;55.30;19.50;;;;;;;0.95;79.48;97151.16;104427;1276;100551;-69
2023/03/07 02:59:37;;;;;;;44.10;16.90;;;;;;;0.97;79.34;97155.02;104510;1267;99798;-70
2023/03/07 03:02:04;;;;;;;22.00;10.20;;;;;;;0.99;79.31;97157.96;104873;1276;99347;-68
2023/03/07 03:04:31;;;;;;;42.60;17.40;;;;;;;0.99;79.25;97154.41;104473;1267;99869;-68
2023/03/07 03:06:58;;;;;;;27.00;10.90;;;;;;;0.98;79.06;97156.36;104374;1269;99401;-69
2023/03/07 03:09:26;;;;;;;23.70;10.40;;;;;;;0.95;79.11;97153.36;104285;1277;99982;-68
2023/03/07 03:11:53;;;;;;;33.00;12.30;;;;;;;0.93;79.17;97155.06;104411;1265;99445;-75
2023/03/07 03:14:20;;;;;;;40.00;15.50;;;;;;;0.90;79.08;97151.96;104201;1264;100531;-70
2023/03/07 03:16:48;;;;;;;29.50;13.10;;;;;;;0.89;79.13;97151.55;104335;1277;99442;-70
2023/03/07 03:19:15;;;;;;;47.90;17.80;;;;;;;0.86;79.04;97154.23;104422;1269;99348;-73
2023/03/07 03:21:42;;;;;;;35.20;13.90;;;;;;;0.84;79.13;97156.45;104282;1277;99458;-72
2023/03/07 03:24:10;;;;;;;27.40;9.60;;;;;;;0.82;79.10;97156.81;104930;1258;99348;-72
2023/03/07 03:26:38;;;;;;;39.50;14.00;;;;;;;0.80;79.06;97157.56;104895;1271;100578;-71
2023/03/07 03:29:05;;;;;;;33.00;12.60;;;;;;;0.80;78.89;97157.25;104865;1270;100546;-69
2023/03/07 03:31:33;;;;;;;59.00;18.70;;;;;;;0.82;78.91;97156.81;104744;1280;99218;-72
2023/03/07 03:34:00;;;;;;;40.70;15.40;;;;;;;0.84;78.87;97159.67;104930;1270;99270;-72
2023/03/07 03:36:28;;;;;;;22.90;9.60;;;;;;;0.88;78.75;97155.98;104946;1270;100607;-71
2023/03/07 03:38:57;;;;;;;26.70;11.60;;;;;;;0.91;78.52;97153.84;104938;1270;99314;-71
2023/03/07 03:41:25;;;;;;;23.00;9.70;;;;;;;0.94;78.60;97151.70;104973;1256;99793;-71
2023/03/07 03:43:52;;;;;;;34.40;14.20;;;;;;;0.95;78.58;97156.71;104958;1270;99256;-73
2023/03/07 03:46:20;;;;;;;42.60;16.80;;;;;;;0.94;78.43;97157.37;104945;1270;113558;-70
2023/03/07 03:48:55;;;;;;;28.90;12.60;;;;;;;0.94;78.18;97157.96;104637;1266;99221;-72
2023/03/07 03:51:23;;;;;;;52.90;19.30;;;;;;;0.91;78.39;97160.00;104679;1266;106992;-69
2023/03/07 03:53:51;;;;;;;50.10;21.30;;;;;;;0.87;78.55;97167.70;104894;1263;99307;-68
2023/03/07 03:56:21;;;;;;;56.10;22.90;;;;;;;0.84;78.55;97169.13;104932;1261;99252;-71
2023/03/07 03:58:50;;;;;;;30.10;12.40;;;;;;;0.82;78.37;97169.90;104814;1261;113664;-68
2023/03/07 04:01:19;;;;;;;37.20;15.20;;;;;;;0.79;78.37;97169.29;104655;1267;99438;-68
2023/03/07 04:03:49;;;;;;;24.60;10.10;;;;;;;0.76;78.37;97170.03;104957;1264;108567;-72
2023/03/07 04:06:19;;;;;;;33.90;13.80;;;;;;;0.74;78.20;97168.16;104630;1265;99342;-71
2023/03/07 04:08:47;;;;;;;28.20;11.10;;;;;;;0.74;78.12;97175.50;104922;1261;99249;-69
2023/03/07 04:11:14;;;;;;;30.70;12.90;;;;;;;0.74;78.10;97176.94;104934;1258;113708;-69
2023/03/07 04:13:42;;;;;;;29.40;13.00;;;;;;;0.74;77.97;97179.81;104855;1257;100259;-71
2023/03/07 04:16:09;;;;;;;29.40;13.60;;;;;;;0.73;78.00;97178.52;104858;1263;109752;-70
2023/03/07 04:18:38;;;;;;;29.50;11.50;;;;;;;0.72;78.02;97178.53;104767;1261;99365;-72
2023/03/07 04:21:06;;;;;;;23.30;11.70;;;;;;;0.70;78.00;97179.48;104653;1272;99575;-69
2023/03/07 04:23:33;;;;;;;23.70;11.50;;;;;;;0.66;77.92;97175.47;104767;1261;114125;-69
2023/03/07 04:26:02;;;;;;;23.50;11.60;;;;;;;0.62;77.91;97171.36;104887;1261;99384;-68
2023/03/07 04:28:45;;;;;;;20.80;10.50;;;;;;;0.57;77.82;97171.35;104752;1261;108727;-68
2023/03/07 04:31:16;;;;;;;19.90;10.10;;;;;;;0.50;78.05;97169.16;104749;1271;100729;-71
2023/03/07 04:33:43;;;;;;;15.80;8.40;;;;;;;0.44;78.14;97170.61;104685;1258;99182;-68
2023/03/07 04:36:11;;;;;;;14.60;8.00;;;;;;;0.38;78.32;97166.89;104516;1265;112549;-71
2023/03/07 04:38:39;;;;;;;17.40;8.40;;;;;;;0.32;78.39;97169.58;104970;1270;99273;-70
2023/03/07 04:41:10;;;;;;;18.90;9.70;;;;;;;0.26;78.58;97166.36;104762;1261;107286;-68
2023/03/07 04:43:37;;;;;;;22.40;10.60;;;;;;;0.23;78.63;97162.98;104860;1264;99342;-71
2023/03/07 04:46:05;;;;;;;21.40;10.10;;;;;;;0.22;78.83;97158.31;104978;1270;99237;-69
2023/03/07 04:48:32;;;;;;;31.00;14.10;;;;;;;0.23;78.50;97157.77;104671;1261;99323;-68
2023/03/07 04:50:59;;;;;;;26.80;12.50;;;;;;;0.24;78.53;97157.42;105037;1263;99242;-71
2023/03/07 04:53:26;;;;;;;26.50;11.80;;;;;;;0.25;78.65;97155.00;104833;1260;99740;-70
2023/03/07 04:56:01;;;;;;;21.90;9.20;;;;;;;0.26;78.60;97153.47;104714;1257;100510;-70
2023/03/07 04:58:30;;;;;;;25.90;11.50;;;;;;;0.26;78.54;97154.77;104624;1266;99375;-68
2023/03/07 05:00:59;;;;;;;23.40;10.10;;;;;;;0.23;78.70;97154.58;105067;1260;113510;-72
2023/03/07 05:03:27;;;;;;;26.30;12.30;;;;;;;0.20;78.59;97151.85;105050;1261;99271;-70
2023/03/07 05:05:54;;;;;;;29.10;11.90;;;;;;;0.16;78.71;97150.06;104770;1261;107216;-70
2023/03/07 05:08:22;;;;;;;45.80;18.30;;;;;;;0.12;78.78;97150.63;104618;1258;99334;-68
2023/03/07 05:10:49;;;;;;;148.60;39.60;;;;;;;0.08;78.97;97147.27;104732;1263;99412;-71
2023/03/07 05:13:16;;;;;;;315.70;88.50;;;;;;;0.03;79.29;97143.05;104598;1261;99292;-73
2023/03/07 05:15:43;;;;;;;479.10;125.70;;;;;;;0.00;79.09;97144.80;104757;1261;99703;-68
2023/03/07 05:18:10;;;;;;;124.70;35.00;;;;;;;-0.03;79.35;97142.52;104880;1261;99207;-68
2023/03/07 05:20:37;;;;;;;204.00;47.40;;;;;;;-0.06;79.33;97145.92;104952;1261;99236;-69
2023/03/07 05:23:04;;;;;;;156.00;37.70;;;;;;;-0.10;79.49;97147.89;105001;1260;99686;-68
2023/03/07 05:25:32;;;;;;;131.60;29.80;;;;;;;-0.14;79.48;97153.64;104845;1263;99378;-69
2023/03/07 05:27:59;;;;;;;166.00;32.10;;;;;;;-0.17;79.68;97151.44;104951;1266;99300;-71
2023/03/07 05:30:26;;;;;;;94.90;23.90;;;;;;;-0.16;79.83;97154.50;104874;1264;99380;-70
2023/03/07 05:32:53;;;;;;;78.40;18.60;;;;;;;-0.14;79.75;97152.92;104672;1261;99256;-69
2023/03/07 05:35:23;;;;;;;96.90;23.00;;;;;;;-0.12;79.73;97154.70;104823;1257;99272;-69
2023/03/07 05:37:51;;;;;;;63.70;17.50;;;;;;;-0.08;79.89;97153.70;104822;1260;100543;-72
2023/03/07 05:40:18;;;;;;;37.50;13.40;;;;;;;-0.06;79.57;97155.41;104565;1268;99326;-67
2023/03/07 05:42:45;;;;;;;60.80;17.60;;;;;;;-0.03;79.88;97154.08;104632;1264;99336;-68
2023/03/07 05:45:12;;;;;;;26.10;10.30;;;;;;;0.01;79.82;97146.03;104910;1260;99224;-68
2023/03/07 05:47:39;;;;;;;111.20;48.40;;;;;;;0.02;79.86;97150.59;104932;1261;99265;-68
2023/03/07 05:50:08;;;;;;;63.60;26.90;;;;;;;0.04;79.78;97149.61;104879;1264;100581;-67
2023/03/07 05:52:35;;;;;;;71.80;30.80;;;;;;;0.04;79.96;97143.27;104820;1257;99737;-68
2023/03/07 05:55:03;;;;;;;313.30;170.90;;;;;;;0.05;80.12;97149.65;104759;1260;99324;-72
2023/03/07 05:57:30;;;;;;;45.60;19.80;;;;;;;0.06;80.03;97149.00;104765;1271;99266;-72
2023/03/07 05:59:58;;;;;;;36.20;14.30;;;;;;;0.07;79.93;97147.33;104998;1270;99759;-74
2023/03/07 06:02:25;;;;;;;86.00;45.10;;;;;;;0.10;79.93;97147.42;104916;1261;99292;-70
2023/03/07 06:04:52;;;;;;;92.60;57.90;;;;;;;0.12;79.93;97149.18;104985;1263;99320;-69
2023/03/07 06:07:19;;;;;;;50.70;20.40;;;;;;;0.15;79.99;97151.58;104715;1261;100539;-70
2023/03/07 06:09:46;;;;;;;148.00;80.60;;;;;;;0.18;79.82;97147.29;104694;1261;99378;-70
2023/03/07 06:12:13;;;;;;;23.70;10.10;;;;;;;0.24;79.70;97146.05;104698;1260;99274;-68
2023/03/07 06:14:40;;;;;;;32.40;12.30;;;;;;;0.30;79.59;97142.96;104687;1271;99390;-70
2023/03/07 06:17:08;;;;;;;40.30;20.90;;;;;;;0.38;79.61;97139.30;104845;1261;99753;-72
2023/03/07 06:19:35;;;;;;;33.60;17.10;;;;;;;0.44;79.46;97137.72;104672;1270;100506;-69
2023/03/07 06:22:02;;;;;;;48.80;22.20;;;;;;;0.52;79.35;97138.42;104847;1257;99849;-68
2023/03/07 06:24:29;;;;;;;24.50;12.30;;;;;;;0.58;79.09;97140.88;104936;1261;113614;-67
2023/03/07 06:26:57;;;;;;;33.20;13.00;;;;;;;0.60;78.98;97138.75;104958;1257;100443;-70
2023/03/07 06:29:24;;;;;;;59.20;25.40;;;;;;;0.63;78.87;97137.37;104922;1262;108378;-73
2023/03/07 06:31:52;;;;;;;55.80;23.70;;;;;;;0.66;78.90;97139.83;104772;1270;99218;-74
2023/03/07 06:34:19;;;;;;;57.10;23.20;;;;;;;0.70;79.09;97140.05;104908;1261;99343;-72
2023/03/07 06:36:47;;;;;;;19.40;9.70;;;;;;;0.74;79.04;97140.55;104821;1262;99257;-70
2023/03/07 06:39:19;;;;;;;32.30;12.90;;;;;;;0.79;78.75;97138.98;104815;1261;99295;-71
2023/03/07 06:41:48;;;;;;;46.80;23.40;;;;;;;0.86;78.82;97141.33;104805;1271;107545;-70
2023/03/07 06:44:16;;;;;;;64.60;31.60;;;;;;;0.95;78.65;97138.86;104633;1264;99357;-68
2023/03/07 06:46:44;;;;;;;57.10;26.10;;;;;;;1.04;78.40;97135.45;104898;1271;99760;-69
2023/03/07 06:49:12;;;;;;;41.70;20.20;;;;;;;1.11;78.05;97138.60;104765;1261;113308;-69
2023/03/07 06:51:40;;;;;;;50.00;25.20;;;;;;;1.18;78.07;97138.56;104709;1257;99266;-68
2023/03/07 06:54:07;;;;;;;27.60;12.20;;;;;;;1.26;78.00;97139.98;104561;1257;108600;-70
2023/03/07 06:56:35;;;;;;;25.40;11.00;;;;;;;1.36;77.64;97137.44;104850;1263;99242;-69
2023/03/07 06:59:02;;;;;;;32.90;14.50;;;;;;;1.47;77.46;97138.64;104859;1257;99780;-70
2023/03/07 07:01:29;;;;;;;15.40;7.70;;;;;;;1.57;76.83;97130.17;104632;1256;100534;-69
2023/03/07 07:03:57;;;;;;;20.30;9.80;;;;;;;1.68;76.32;97130.65;104601;1276;99361;-70
2023/03/07 07:06:24;;;;;;;23.00;12.60;;;;;;;1.78;75.63;97128.23;104808;1257;99285;-68
2023/03/07 07:08:56;;;;;;;19.40;8.30;;;;;;;1.84;75.03;97128.14;104808;1264;99413;-70
2023/03/07 07:11:24;;;;;;;23.00;11.40;;;;;;;1.85;74.61;97130.26;104453;1265;100773;-70
2023/03/07 07:13:52;;;;;;;19.00;9.60;;;;;;;1.89;75.02;97131.41;104919;1273;113712;-69
2023/03/07 07:16:19;;;;;;;87.00;49.00;;;;;;;1.87;74.53;97123.67;104662;1260;99377;-69
2023/03/07 07:18:50;;;;;;;19.50;10.30;;;;;;;1.90;74.87;97128.17;104815;1258;99817;-68
2023/03/07 07:21:18;;;;;;;19.20;10.00;;;;;;;1.92;74.77;97128.52;104719;1273;99298;-71
2023/03/07 07:23:45;;;;;;;17.20;9.00;;;;;;;1.93;74.41;97128.88;104969;1262;99382;-68
2023/03/07 07:26:12;;;;;;;20.90;10.40;;;;;;;1.89;73.71;97128.88;104915;1263;99317;-69
2023/03/07 07:28:39;;;;;;;17.50;8.80;;;;;;;1.92;74.54;97130.13;104893;1274;99267;-69
2023/03/07 07:31:07;;;;;;;13.00;7.40;;;;;;;2.01;74.59;97126.00;104914;1262;99262;-69
2023/03/07 07:33:34;;;;;;;14.50;7.30;;;;;;;2.08;73.80;97122.52;104923;1262;99361;-69
2023/03/07 07:36:01;;;;;;;169.00;67.70;;;;;;;2.13;73.74;97123.42;104792;1263;99481;-68
2023/03/07 07:38:28;;;;;;;45.50;21.20;;;;;;;2.23;74.72;97126.51;104697;1263;99338;-68
2023/03/07 07:40:55;;;;;;;20.70;11.40;;;;;;;2.33;73.77;97125.02;104847;1259;99262;-68
2023/03/07 07:43:22;;;;;;;165.00;66.50;;;;;;;2.42;73.49;97126.97;104865;1263;99348;-69
2023/03/07 07:45:50;;;;;;;64.80;23.60;;;;;;;2.52;73.66;97125.02;104718;1262;99397;-68
2023/03/07 07:48:18;;;;;;;43.40;21.60;;;;;;;2.59;72.81;97125.83;104852;1258;99372;-67
2023/03/07 07:50:45;;;;;;;130.20;43.70;;;;;;;2.64;73.37;97128.48;104757;1262;99240;-68
2023/03/07 07:53:15;;;;;;;213.10;71.60;;;;;;;2.74;73.36;97127.15;104779;1261;99415;-68
2023/03/07 07:55:44;;;;;;;316.50;108.30;;;;;;;2.84;73.07;97129.73;104584;1263;107510;-67
2023/03/07 07:58:11;;;;;;;221.10;64.70;;;;;;;2.97;73.73;97122.92;104847;1264;99328;-68
2023/03/07 08:00:38;;;;;;;161.20;53.40;;;;;;;3.10;73.21;97124.52;104827;1259;99345;-67
2023/03/07 08:03:05;;;;;;;71.60;24.50;;;;;;;3.21;72.96;97119.52;104782;1273;99266;-68
2023/03/07 08:05:33;;;;;;;90.90;28.40;;;;;;;3.25;71.40;97115.54;104924;1258;99170;-68
2023/03/07 08:08:00;;;;;;;113.50;30.80;;;;;;;3.21;71.00;97109.13;104736;1257;100572;-68
2023/03/07 08:10:27;;;;;;;67.20;22.60;;;;;;;3.17;70.45;97107.86;104912;1256;100540;-67
2023/03/07 08:12:54;;;;;;;40.90;15.60;;;;;;;3.14;70.52;97106.30;104776;1270;99283;-67
2023/03/07 08:15:21;;;;;;;557.10;183.30;;;;;;;3.19;71.63;97103.37;104953;1260;99397;-67
2023/03/07 08:17:50;;;;;;;43.80;16.30;;;;;;;3.21;71.06;97104.41;104917;1257;99375;-67
2023/03/07 08:20:21;;;;;;;443.40;150.50;;;;;;;3.22;70.70;97106.71;104893;1280;100495;-67
2023/03/07 08:22:52;;;;;;;321.40;94.40;;;;;;;3.30;71.91;97102.72;104822;1264;99451;-68
2023/03/07 08:25:23;;;;;;;598.40;205.30;;;;;;;3.41;71.04;97099.98;104640;1264;99281;-67
2023/03/07 08:27:53;;;;;;;277.90;83.60;;;;;;;3.49;70.43;97098.59;104954;1261;112015;-67
2023/03/07 08:30:26;;;;;;;130.30;41.10;;;;;;;3.55;70.28;97093.85;104741;1264;100498;-67
2023/03/07 08:32:55;;;;;;;416.00;115.70;;;;;;;3.66;71.00;97091.86;104684;1261;108703;-68
2023/03/07 08:35:23;;;;;;;161.50;45.40;;;;;;;3.82;70.22;97090.20;104949;1260;99344;-68
2023/03/07 08:37:58;;;;;;;821.50;343.00;;;;;;;3.98;70.00;97087.98;104798;1263;99263;-68
2023/03/07 08:40:26;;;;;;;126.10;38.60;;;;;;;4.24;69.26;97084.94;104843;1261;113544;-72
2023/03/07 08:42:54;;;;;;;78.10;27.60;;;;;;;4.50;67.56;97085.59;104574;1265;99250;-72
2023/03/07 08:45:27;;;;;;;184.10;61.30;;;;;;;4.71;66.97;97086.27;104929;1257;108469;-68
2023/03/07 08:48:03;;;;;;;229.30;73.30;;;;;;;4.84;66.28;97085.63;104601;1266;99474;-68
2023/03/07 08:50:30;;;;;;;156.00;55.80;;;;;;;4.99;66.73;97083.86;104942;1262;100587;-67
2023/03/07 08:52:57;;;;;;;331.70;131.30;;;;;;;5.14;66.18;97087.88;104998;1260;99835;-68
2023/03/07 08:55:24;;;;;;;32.50;14.50;;;;;;;5.32;65.61;97089.05;104675;1257;99380;-68
2023/03/07 08:57:51;;;;;;;45.80;19.40;;;;;;;5.48;64.95;97087.64;104691;1264;99285;-67
2023/03/07 09:00:19;;;;;;;195.90;82.30;;;;;;;5.63;63.91;97086.65;104814;1262;100567;-67
2023/03/07 09:02:46;;;;;;;60.10;26.00;;;;;;;5.68;62.62;97086.64;104784;1259;99300;-67
2023/03/07 09:05:13;;;;;;;85.60;40.20;;;;;;;5.59;62.31;97086.07;104873;1264;99399;-68
2023/03/07 09:07:41;;;;;;;23.20;10.50;;;;;;;5.59;62.22;97090.36;104876;1258;99702;-69
2023/03/07 09:10:10;;;;;;;54.40;25.60;;;;;;;5.56;62.67;97089.67;104751;1260;99264;-67
2023/03/07 09:12:37;;;;;;;41.80;19.30;;;;;;;5.62;63.32;97093.35;104619;1268;100042;-69
2023/03/07 09:15:05;;;;;;;36.50;17.10;;;;;;;5.62;62.41;97094.11;104888;1262;99272;-67
2023/03/07 09:17:32;;;;;;;25.70;13.10;;;;;;;5.55;62.22;97094.77;104637;1262;99343;-67
2023/03/07 09:19:59;;;;;;;20.60;9.80;;;;;;;5.46;61.56;97094.50;104759;1273;99274;-67
2023/03/07 09:22:27;;;;;;;41.70;21.30;;;;;;;5.38;62.04;97088.58;104714;1273;99364;-67
2023/03/07 09:24:54;;;;;;;36.90;19.80;;;;;;;5.45;62.72;97091.11;104682;1261;99352;-68
2023/03/07 09:27:21;;;;;;;32.00;17.30;;;;;;;5.53;62.08;97089.94;104707;1262;99952;-67
2023/03/07 09:29:48;;;;;;;19.90;11.50;;;;;;;5.56;61.55;97086.27;104806;1257;99276;-67
2023/03/07 09:32:15;;;;;;;24.90;13.60;;;;;;;5.46;59.93;97083.31;104608;1264;99276;-67
2023/03/07 09:34:42;;;;;;;24.20;14.20;;;;;;;5.37;59.26;97081.16;104886;1273;99796;-67
2023/03/07 09:37:09;;;;;;;29.80;14.70;;;;;;;5.31;58.91;97079.47;104664;1257;99261;-67
2023/03/07 09:39:36;;;;;;;37.60;21.20;;;;;;;5.24;59.50;97074.13;104715;1262;99250;-67
2023/03/07 09:42:23;;;;;;;25.20;12.40;;;;;;;5.22;59.73;97075.27;104804;1262;100498;-67
2023/03/07 09:44:53;;;;;;;16.20;9.50;;;;;;;5.23;59.59;97074.41;104808;1262;108432;-67
2023/03/07 09:47:29;;;;;;;35.20;23.00;;;;;;;5.25;59.93;97068.98;104539;1265;99451;-67
2023/03/07 09:50:00;;;;;;;37.70;24.30;;;;;;;5.32;59.48;97066.14;104908;1262;99339;-67
2023/03/07 09:52:32;;;;;;;17.50;10.40;;;;;;;5.39;59.77;97064.77;104668;1264;112676;-67
2023/03/07 09:55:08;;;;;;;19.40;10.70;;;;;;;5.45;59.35;97060.71;104658;1257;99561;-67
2023/03/07 09:58:00;;;;;;;28.10;13.00;;;;;;;5.46;58.65;97064.68;104543;1266;107843;-67
2023/03/07 10:00:35;;;;;;;77.80;35.90;;;;;;;5.47;58.41;97064.48;104666;1263;100584;-70
2023/03/07 10:03:25;;;;;;;29.10;13.00;;;;;;;5.43;58.66;97061.23;104779;1262;99225;-68
2023/03/07 10:05:58;;;;;;;25.30;12.80;;;;;;;5.73;58.60;97059.27;104800;1262;113604;-68
2023/03/07 10:08:32;;;;;;;23.00;10.70;;;;;;;6.11;57.62;97056.70;104931;1260;99251;-67
2023/03/07 10:11:28;;;;;;;45.70;28.30;;;;;;;6.44;56.80;97052.80;104874;1262;107593;-67
2023/03/07 10:14:33;;;;;;;166.60;92.80;;;;;;;6.89;56.69;97053.94;104389;1266;99384;-67
2023/03/07 10:17:34;;;;;;;52.70;27.60;;;;;;;7.16;54.74;97046.71;104685;1257;99166;-67
2023/03/07 10:20:34;;;;;;;56.70;29.80;;;;;;;7.40;54.92;97040.27;104696;1263;113120;-68
2023/03/07 10:23:27;;;;;;;25.70;13.90;;;;;;;7.43;54.02;97040.70;104849;1263;99330;-67
2023/03/07 10:26:08;;;;;;;34.30;20.10;;;;;;;7.42;53.76;97040.67;104567;1260;108210;-66
2023/03/07 10:28:43;;;;;;;19.70;9.40;;;;;;;7.60;53.78;97034.66;104763;1257;99253;-67
2023/03/07 10:31:15;;;;;;;16.40;8.40;;;;;;;7.68;53.48;97028.02;104837;1260;99475;-68
2023/03/07 10:33:46;;;;;;;14.10;8.10;;;;;;;7.80;52.03;97031.10;104432;1265;113219;-66
2023/03/07 10:36:17;;;;;;;18.10;7.50;;;;;;;7.94;51.98;97025.34;104521;1257;99848;-67
2023/03/07 10:39:12;;;;;;;15.60;8.10;;;;;;;7.94;52.08;97023.95;104842;1257;108784;-66
2023/03/07 10:41:39;;;;;;;18.50;9.00;;;;;;;8.14;52.38;97024.46;104530;1265;99554;-67
2023/03/07 10:44:14;;;;;;;24.90;12.40;;;;;;;8.52;52.34;97019.23;104764;1262;100451;-67
2023/03/07 10:46:43;;;;;;;16.70;8.70;;;;;;;8.87;50.95;97016.80;104639;1257;113313;-66
2023/03/07 10:49:43;;;;;;;23.90;9.60;;;;;;;8.97;49.29;97017.81;104752;1260;99317;-67
2023/03/07 10:52:25;;;;;;;15.10;8.90;;;;;;;9.17;50.23;97010.20;104635;1266;107441;-67
2023/03/07 10:54:53;;;;;;;15.20;8.10;;;;;;;9.47;49.23;97009.34;104467;1263;99322;-67
2023/03/07 10:57:29;;;;;;;9.30;5.90;;;;;;;9.51;48.12;97001.19;104622;1270;99848;-67
2023/03/07 11:00:13;;;;;;;11.40;5.80;;;;;;;9.26;46.40;96999.60;104829;1262;113817;-67
2023/03/07 11:02:45;;;;;;;13.20;7.80;;;;;;;9.33;47.97;96999.50;104658;1258;99256;-67
2023/03/07 11:05:32;;;;;;;9.90;5.90;;;;;;;9.71;48.22;96995.23;104835;1262;108778;-68
2023/03/07 11:08:01;;;;;;;10.60;6.70;;;;;;;10.06;46.55;96983.63;104858;1261;100540;-68
2023/03/07 11:10:38;;;;;;;17.00;8.70;;;;;;;10.01;45.55;96987.83;104586;1257;99915;-67
2023/03/07 11:13:13;;;;;;;16.80;8.00;;;;;;;10.10;46.02;96982.57;104883;1256;113582;-67
2023/03/07 11:15:40;;;;;;;18.90;10.80;;;;;;;10.24;46.29;96981.97;104640;1257;99295;-66
2023/03/07 11:18:44;;;;;;;9.70;6.10;;;;;;;10.40;45.90;96976.41;104864;1273;108574;-67
2023/03/07 11:21:33;;;;;;;12.90;7.40;;;;;;;10.25;44.40;96979.19;104171;1268;99460;-66
2023/03/07 11:24:05;;;;;;;15.50;9.50;;;;;;;9.99;45.78;96979.70;104319;1270;99666;-66
2023/03/07 11:26:39;;;;;;;11.70;7.20;;;;;;;9.76;45.62;96985.52;104070;1266;112602;-68
2023/03/07 11:29:11;;;;;;;15.10;8.20;;;;;;;9.54;45.69;96980.01;104350;1268;99277;-66